<?xml version="1.0" encoding="UTF-8" standalone="no" ?>
<gpx xmlns="http://www.topografix.com/GPX/1/1" xmlns:xsi="http://www.w3.org/2001/XMLSchema-instance" xsi:schemaLocation="http://www.topografix.com/GPX/1/1 http://www.topografix.com/GPX/1/1/gpx.xsd" version="1.1" creator="VisuGPX - https://www.visugpx.com">
  <metadata>
    <name>GTJ Labergement &amp;gt; Bellegarde</name>
  </metadata>
  <trk>
    <name><![CDATA[GR 5 Mouthe-Chapelle des Bois]]></name>
    <trkseg>
      <trkpt lat="46.70655" lon="6.20926">
        <ele>915.833</ele>
        <time>2014-06-13T06:31:31Z</time>
      </trkpt>
      <trkpt lat="46.70655" lon="6.20926">
        <ele>915.833</ele>
        <time>2014-06-13T06:31:31Z</time>
      </trkpt>
      <trkpt lat="46.70655" lon="6.20926">
        <ele>915.833</ele>
        <time>2014-06-13T06:31:31Z</time>
      </trkpt>
      <trkpt lat="46.70661" lon="6.20866">
        <ele>914.823</ele>
        <time>2014-06-13T06:31:56Z</time>
      </trkpt>
      <trkpt lat="46.70681" lon="6.2087">
        <ele>921.615</ele>
        <time>2014-06-13T06:33:08Z</time>
      </trkpt>
      <trkpt lat="46.70669" lon="6.20878">
        <ele>947.507</ele>
        <time>2014-06-13T06:37:35Z</time>
      </trkpt>
      <trkpt lat="46.70641" lon="6.20859">
        <ele>947.03</ele>
        <time>2014-06-13T06:38:28Z</time>
      </trkpt>
      <trkpt lat="46.70586" lon="6.20769">
        <ele>945.154</ele>
        <time>2014-06-13T06:39:58Z</time>
      </trkpt>
      <trkpt lat="46.70638" lon="6.20735">
        <ele>944.679</ele>
        <time>2014-06-13T06:40:59Z</time>
      </trkpt>
      <trkpt lat="46.70685" lon="6.20751">
        <ele>942.246</ele>
        <time>2014-06-13T06:41:29Z</time>
      </trkpt>
      <trkpt lat="46.70696" lon="6.20742">
        <ele>946.671</ele>
        <time>2014-06-13T06:41:37Z</time>
      </trkpt>
      <trkpt lat="46.70794" lon="6.20587">
        <ele>944.67</ele>
        <time>2014-06-13T06:43:23Z</time>
      </trkpt>
      <trkpt lat="46.70813" lon="6.2046">
        <ele>942.752</ele>
        <time>2014-06-13T06:44:27Z</time>
      </trkpt>
      <trkpt lat="46.70812" lon="6.20269">
        <ele>941.838</ele>
        <time>2014-06-13T06:45:59Z</time>
      </trkpt>
      <trkpt lat="46.70846" lon="6.20111">
        <ele>942.27</ele>
        <time>2014-06-13T06:47:25Z</time>
      </trkpt>
      <trkpt lat="46.70972" lon="6.19949">
        <ele>946.617</ele>
        <time>2014-06-13T06:49:30Z</time>
      </trkpt>
      <trkpt lat="46.70999" lon="6.19947">
        <ele>948.507</ele>
        <time>2014-06-13T06:49:52Z</time>
      </trkpt>
      <trkpt lat="46.71023" lon="6.19919">
        <ele>949.05</ele>
        <time>2014-06-13T06:50:15Z</time>
      </trkpt>
      <trkpt lat="46.71079" lon="6.19899">
        <ele>949.944</ele>
        <time>2014-06-13T06:51:01Z</time>
      </trkpt>
      <trkpt lat="46.71004" lon="6.19731">
        <ele>947.069</ele>
        <time>2014-06-13T06:52:42Z</time>
      </trkpt>
      <trkpt lat="46.70993" lon="6.1962">
        <ele>946.186</ele>
        <time>2014-06-13T06:53:35Z</time>
      </trkpt>
      <trkpt lat="46.70999" lon="6.19552">
        <ele>944.631</ele>
        <time>2014-06-13T06:54:10Z</time>
      </trkpt>
      <trkpt lat="46.71074" lon="6.19436">
        <ele>946.67</ele>
        <time>2014-06-13T06:55:32Z</time>
      </trkpt>
      <trkpt lat="46.71049" lon="6.19299">
        <ele>943.232</ele>
        <time>2014-06-13T06:56:43Z</time>
      </trkpt>
      <trkpt lat="46.71032" lon="6.19275">
        <ele>943.237</ele>
        <time>2014-06-13T06:57:04Z</time>
      </trkpt>
      <trkpt lat="46.7105" lon="6.19254">
        <ele>943.249</ele>
        <time>2014-06-13T06:57:24Z</time>
      </trkpt>
      <trkpt lat="46.71062" lon="6.19264">
        <ele>943.213</ele>
        <time>2014-06-13T07:01:20Z</time>
      </trkpt>
      <trkpt lat="46.71066" lon="6.19249">
        <ele>943.707</ele>
        <time>2014-06-13T07:04:35Z</time>
      </trkpt>
      <trkpt lat="46.71061" lon="6.19291">
        <ele>943.76</ele>
        <time>2014-06-13T07:05:47Z</time>
      </trkpt>
      <trkpt lat="46.7103" lon="6.19227">
        <ele>943.784</ele>
        <time>2014-06-13T07:07:09Z</time>
      </trkpt>
      <trkpt lat="46.70948" lon="6.19169">
        <ele>943.739</ele>
        <time>2014-06-13T07:08:28Z</time>
      </trkpt>
      <trkpt lat="46.70767" lon="6.18995">
        <ele>944.666</ele>
        <time>2014-06-13T07:11:36Z</time>
      </trkpt>
      <trkpt lat="46.70493" lon="6.18864">
        <ele>946.151</ele>
        <time>2014-06-13T07:15:17Z</time>
      </trkpt>
      <trkpt lat="46.70096" lon="6.19444">
        <ele>953.86</ele>
        <time>2014-06-13T07:26:48Z</time>
      </trkpt>
      <trkpt lat="46.7011" lon="6.19416">
        <ele>950.492</ele>
        <time>2014-06-13T07:27:16Z</time>
      </trkpt>
      <trkpt lat="46.70079" lon="6.19355">
        <ele>950.435</ele>
        <time>2014-06-13T07:28:14Z</time>
      </trkpt>
      <trkpt lat="46.70068" lon="6.19281">
        <ele>949.986</ele>
        <time>2014-06-13T07:28:56Z</time>
      </trkpt>
      <trkpt lat="46.69919" lon="6.18946">
        <ele>951.414</ele>
        <time>2014-06-13T07:32:34Z</time>
      </trkpt>
      <trkpt lat="46.69746" lon="6.18763">
        <ele>954.707</ele>
        <time>2014-06-13T07:35:31Z</time>
      </trkpt>
      <trkpt lat="46.69639" lon="6.18615">
        <ele>956.24</ele>
        <time>2014-06-13T07:37:40Z</time>
      </trkpt>
      <trkpt lat="46.69455" lon="6.18524">
        <ele>955.794</ele>
        <time>2014-06-13T07:40:20Z</time>
      </trkpt>
      <trkpt lat="46.69462" lon="6.18476">
        <ele>957.649</ele>
        <time>2014-06-13T07:40:53Z</time>
      </trkpt>
      <trkpt lat="46.69538" lon="6.18406">
        <ele>960.096</ele>
        <time>2014-06-13T07:42:11Z</time>
      </trkpt>
      <trkpt lat="46.69558" lon="6.1837">
        <ele>960.081</ele>
        <time>2014-06-13T07:42:36Z</time>
      </trkpt>
      <trkpt lat="46.69553" lon="6.18322">
        <ele>961.57</ele>
        <time>2014-06-13T07:43:13Z</time>
      </trkpt>
      <trkpt lat="46.69529" lon="6.18272">
        <ele>962.492</ele>
        <time>2014-06-13T07:43:50Z</time>
      </trkpt>
      <trkpt lat="46.69532" lon="6.18208">
        <ele>962.466</ele>
        <time>2014-06-13T07:44:31Z</time>
      </trkpt>
      <trkpt lat="46.69517" lon="6.1814">
        <ele>961.929</ele>
        <time>2014-06-13T07:45:07Z</time>
      </trkpt>
      <trkpt lat="46.69448" lon="6.18085">
        <ele>965.821</ele>
        <time>2014-06-13T07:46:30Z</time>
      </trkpt>
      <trkpt lat="46.6938" lon="6.18056">
        <ele>974.407</ele>
        <time>2014-06-13T07:47:53Z</time>
      </trkpt>
      <trkpt lat="46.69252" lon="6.17881">
        <ele>977.393</ele>
        <time>2014-06-13T07:50:32Z</time>
      </trkpt>
      <trkpt lat="46.69267" lon="6.1783">
        <ele>975.987</ele>
        <time>2014-06-13T07:51:01Z</time>
      </trkpt>
      <trkpt lat="46.69313" lon="6.17786">
        <ele>977.812</ele>
        <time>2014-06-13T07:51:48Z</time>
      </trkpt>
      <trkpt lat="46.6932" lon="6.17705">
        <ele>980.759</ele>
        <time>2014-06-13T07:52:42Z</time>
      </trkpt>
      <trkpt lat="46.69395" lon="6.17704">
        <ele>983.114</ele>
        <time>2014-06-13T07:53:45Z</time>
      </trkpt>
      <trkpt lat="46.69434" lon="6.17722">
        <ele>985.593</ele>
        <time>2014-06-13T07:54:25Z</time>
      </trkpt>
      <trkpt lat="46.69478" lon="6.17687">
        <ele>984.115</ele>
        <time>2014-06-13T07:55:05Z</time>
      </trkpt>
      <trkpt lat="46.69479" lon="6.1762">
        <ele>983.128</ele>
        <time>2014-06-13T07:55:42Z</time>
      </trkpt>
      <trkpt lat="46.69462" lon="6.1758">
        <ele>982.189</ele>
        <time>2014-06-13T07:56:18Z</time>
      </trkpt>
      <trkpt lat="46.6948" lon="6.17533">
        <ele>980.217</ele>
        <time>2014-06-13T07:56:56Z</time>
      </trkpt>
      <trkpt lat="46.69474" lon="6.17443">
        <ele>977.807</ele>
        <time>2014-06-13T07:57:45Z</time>
      </trkpt>
      <trkpt lat="46.69424" lon="6.17348">
        <ele>974.479</ele>
        <time>2014-06-13T07:58:50Z</time>
      </trkpt>
      <trkpt lat="46.69415" lon="6.17298">
        <ele>973.083</ele>
        <time>2014-06-13T07:59:34Z</time>
      </trkpt>
      <trkpt lat="46.69492" lon="6.17217">
        <ele>974.038</ele>
        <time>2014-06-13T08:01:10Z</time>
      </trkpt>
      <trkpt lat="46.6947" lon="6.17121">
        <ele>978.845</ele>
        <time>2014-06-13T08:02:12Z</time>
      </trkpt>
      <trkpt lat="46.695" lon="6.17077">
        <ele>980.23</ele>
        <time>2014-06-13T08:02:54Z</time>
      </trkpt>
      <trkpt lat="46.69496" lon="6.17054">
        <ele>981.639</ele>
        <time>2014-06-13T08:03:09Z</time>
      </trkpt>
      <trkpt lat="46.69356" lon="6.1662">
        <ele>986.991</ele>
        <time>2014-06-13T08:07:34Z</time>
      </trkpt>
      <trkpt lat="46.69239" lon="6.16336">
        <ele>986.935</ele>
        <time>2014-06-13T08:10:28Z</time>
      </trkpt>
      <trkpt lat="46.69213" lon="6.16242">
        <ele>988.986</ele>
        <time>2014-06-13T08:11:23Z</time>
      </trkpt>
      <trkpt lat="46.69143" lon="6.16096">
        <ele>988.914</ele>
        <time>2014-06-13T08:13:01Z</time>
      </trkpt>
      <trkpt lat="46.69019" lon="6.15708">
        <ele>992.207</ele>
        <time>2014-06-13T08:16:40Z</time>
      </trkpt>
      <trkpt lat="46.68996" lon="6.157">
        <ele>990.83</ele>
        <time>2014-06-13T08:16:59Z</time>
      </trkpt>
      <trkpt lat="46.68845" lon="6.15856">
        <ele>993.294</ele>
        <time>2014-06-13T08:19:35Z</time>
      </trkpt>
      <trkpt lat="46.68819" lon="6.15865">
        <ele>992.299</ele>
        <time>2014-06-13T08:19:56Z</time>
      </trkpt>
      <trkpt lat="46.68713" lon="6.15637">
        <ele>978.866</ele>
        <time>2014-06-13T08:22:33Z</time>
      </trkpt>
      <trkpt lat="46.68571" lon="6.15026">
        <ele>983.191</ele>
        <time>2014-06-13T08:28:31Z</time>
      </trkpt>
      <trkpt lat="46.68469" lon="6.14793">
        <ele>986.53</ele>
        <time>2014-06-13T08:31:25Z</time>
      </trkpt>
      <trkpt lat="46.68352" lon="6.14384">
        <ele>990.312</ele>
        <time>2014-06-13T08:35:30Z</time>
      </trkpt>
      <trkpt lat="46.68291" lon="6.13972">
        <ele>1007.669</ele>
        <time>2014-06-13T08:40:33Z</time>
      </trkpt>
      <trkpt lat="46.68226" lon="6.13774">
        <ele>1009.004</ele>
        <time>2014-06-13T08:42:34Z</time>
      </trkpt>
      <trkpt lat="46.68121" lon="6.13607">
        <ele>998.524</ele>
        <time>2014-06-13T08:44:41Z</time>
      </trkpt>
      <trkpt lat="46.68085" lon="6.13492">
        <ele>995.607</ele>
        <time>2014-06-13T08:45:55Z</time>
      </trkpt>
      <trkpt lat="46.68086" lon="6.13442">
        <ele>995.663</ele>
        <time>2014-06-13T08:46:25Z</time>
      </trkpt>
      <trkpt lat="46.68044" lon="6.13417">
        <ele>996.567</ele>
        <time>2014-06-13T08:47:03Z</time>
      </trkpt>
      <trkpt lat="46.67963" lon="6.13328">
        <ele>994.162</ele>
        <time>2014-06-13T08:48:23Z</time>
      </trkpt>
      <trkpt lat="46.67937" lon="6.13337">
        <ele>993.719</ele>
        <time>2014-06-13T08:48:53Z</time>
      </trkpt>
      <trkpt lat="46.67881" lon="6.13417">
        <ele>994.654</ele>
        <time>2014-06-13T08:49:58Z</time>
      </trkpt>
      <trkpt lat="46.67735" lon="6.13756">
        <ele>999.453</ele>
        <time>2014-06-13T08:53:42Z</time>
      </trkpt>
      <trkpt lat="46.67672" lon="6.13834">
        <ele>1001.465</ele>
        <time>2014-06-13T08:54:49Z</time>
      </trkpt>
      <trkpt lat="46.67641" lon="6.13841">
        <ele>1002.311</ele>
        <time>2014-06-13T08:55:10Z</time>
      </trkpt>
      <trkpt lat="46.67604" lon="6.13828">
        <ele>1003.321</ele>
        <time>2014-06-13T08:55:38Z</time>
      </trkpt>
      <trkpt lat="46.67507" lon="6.13757">
        <ele>1005.703</ele>
        <time>2014-06-13T08:57:02Z</time>
      </trkpt>
      <trkpt lat="46.6743" lon="6.13751">
        <ele>1009.007</ele>
        <time>2014-06-13T08:58:09Z</time>
      </trkpt>
      <trkpt lat="46.6737" lon="6.13511">
        <ele>1011.438</ele>
        <time>2014-06-13T09:00:41Z</time>
      </trkpt>
      <trkpt lat="46.67251" lon="6.13228">
        <ele>1017.752</ele>
        <time>2014-06-13T09:03:38Z</time>
      </trkpt>
      <trkpt lat="46.67156" lon="6.13168">
        <ele>1020.127</ele>
        <time>2014-06-13T09:04:58Z</time>
      </trkpt>
      <trkpt lat="46.67048" lon="6.13047">
        <ele>1022.524</ele>
        <time>2014-06-13T09:06:44Z</time>
      </trkpt>
      <trkpt lat="46.66965" lon="6.12987">
        <ele>1030.749</ele>
        <time>2014-06-13T09:08:04Z</time>
      </trkpt>
      <trkpt lat="46.6671" lon="6.12571">
        <ele>1057.638</ele>
        <time>2014-06-13T09:13:56Z</time>
      </trkpt>
      <trkpt lat="46.66531" lon="6.12113">
        <ele>1045.62</ele>
        <time>2014-06-13T09:18:33Z</time>
      </trkpt>
      <trkpt lat="46.66517" lon="6.11881">
        <ele>1046.592</ele>
        <time>2014-06-13T09:20:56Z</time>
      </trkpt>
      <trkpt lat="46.66471" lon="6.11797">
        <ele>1045.673</ele>
        <time>2014-06-13T09:21:47Z</time>
      </trkpt>
      <trkpt lat="46.664" lon="6.11699">
        <ele>1049.42</ele>
        <time>2014-06-13T09:23:05Z</time>
      </trkpt>
      <trkpt lat="46.6632" lon="6.1176">
        <ele>1058.607</ele>
        <time>2014-06-13T09:24:38Z</time>
      </trkpt>
      <trkpt lat="46.66261" lon="6.11755">
        <ele>1065.316</ele>
        <time>2014-06-13T09:25:35Z</time>
      </trkpt>
      <trkpt lat="46.66214" lon="6.11718">
        <ele>1065.85</ele>
        <time>2014-06-13T09:26:23Z</time>
      </trkpt>
      <trkpt lat="46.66201" lon="6.11616">
        <ele>1058.655</ele>
        <time>2014-06-13T09:27:35Z</time>
      </trkpt>
      <trkpt lat="46.66222" lon="6.11508">
        <ele>1049.452</ele>
        <time>2014-06-13T09:28:55Z</time>
      </trkpt>
      <trkpt lat="46.66172" lon="6.1134">
        <ele>1048.547</ele>
        <time>2014-06-13T09:31:07Z</time>
      </trkpt>
      <trkpt lat="46.66174" lon="6.11282">
        <ele>1052.816</ele>
        <time>2014-06-13T09:31:58Z</time>
      </trkpt>
      <trkpt lat="46.66152" lon="6.11217">
        <ele>1057.138</ele>
        <time>2014-06-13T09:32:52Z</time>
      </trkpt>
      <trkpt lat="46.66089" lon="6.11096">
        <ele>1065.865</ele>
        <time>2014-06-13T09:35:16Z</time>
      </trkpt>
      <trkpt lat="46.66066" lon="6.11003">
        <ele>1070.168</ele>
        <time>2014-06-13T09:36:18Z</time>
      </trkpt>
      <trkpt lat="46.66008" lon="6.1095">
        <ele>1071.514</ele>
        <time>2014-06-13T09:37:20Z</time>
      </trkpt>
      <trkpt lat="46.65931" lon="6.10823">
        <ele>1069.607</ele>
        <time>2014-06-13T09:39:13Z</time>
      </trkpt>
      <trkpt lat="46.65823" lon="6.10578">
        <ele>1073.593</ele>
        <time>2014-06-13T09:42:05Z</time>
      </trkpt>
      <trkpt lat="46.65688" lon="6.10696">
        <ele>1090.387</ele>
        <time>2014-06-13T09:45:09Z</time>
      </trkpt>
      <trkpt lat="46.65645" lon="6.10684">
        <ele>1094.122</ele>
        <time>2014-06-13T09:45:58Z</time>
      </trkpt>
      <trkpt lat="46.65585" lon="6.10643">
        <ele>1100.979</ele>
        <time>2014-06-13T09:47:27Z</time>
      </trkpt>
      <trkpt lat="46.65563" lon="6.10656">
        <ele>1104.764</ele>
        <time>2014-06-13T09:48:03Z</time>
      </trkpt>
      <trkpt lat="46.65578" lon="6.10716">
        <ele>1108.583</ele>
        <time>2014-06-13T09:49:00Z</time>
      </trkpt>
      <trkpt lat="46.65684" lon="6.10893">
        <ele>1122.065</ele>
        <time>2014-06-13T09:52:27Z</time>
      </trkpt>
      <trkpt lat="46.65701" lon="6.10953">
        <ele>1124.972</ele>
        <time>2014-06-13T09:53:17Z</time>
      </trkpt>
      <trkpt lat="46.65703" lon="6.11073">
        <ele>1131.613</ele>
        <time>2014-06-13T09:55:00Z</time>
      </trkpt>
      <trkpt lat="46.65685" lon="6.11119">
        <ele>1133.114</ele>
        <time>2014-06-13T09:55:31Z</time>
      </trkpt>
      <trkpt lat="46.65636" lon="6.11177">
        <ele>1136.407</ele>
        <time>2014-06-13T09:56:27Z</time>
      </trkpt>
      <trkpt lat="46.65592" lon="6.11179">
        <ele>1140.354</ele>
        <time>2014-06-13T09:57:11Z</time>
      </trkpt>
      <trkpt lat="46.65556" lon="6.11137">
        <ele>1144.158</ele>
        <time>2014-06-13T09:58:04Z</time>
      </trkpt>
      <trkpt lat="46.65505" lon="6.11109">
        <ele>1150.893</ele>
        <time>2014-06-13T09:59:11Z</time>
      </trkpt>
      <trkpt lat="46.65423" lon="6.11217">
        <ele>1163.37</ele>
        <time>2014-06-13T10:01:29Z</time>
      </trkpt>
      <trkpt lat="46.65388" lon="6.11236">
        <ele>1166.715</ele>
        <time>2014-06-13T10:02:18Z</time>
      </trkpt>
      <trkpt lat="46.65363" lon="6.11271">
        <ele>1167.724</ele>
        <time>2014-06-13T10:02:53Z</time>
      </trkpt>
      <trkpt lat="46.65343" lon="6.11277">
        <ele>1169.636</ele>
        <time>2014-06-13T10:03:10Z</time>
      </trkpt>
      <trkpt lat="46.65324" lon="6.11263">
        <ele>1171.011</ele>
        <time>2014-06-13T10:03:27Z</time>
      </trkpt>
      <trkpt lat="46.65282" lon="6.11206">
        <ele>1172.521</ele>
        <time>2014-06-13T10:04:15Z</time>
      </trkpt>
      <trkpt lat="46.65247" lon="6.11187">
        <ele>1174.903</ele>
        <time>2014-06-13T10:04:53Z</time>
      </trkpt>
      <trkpt lat="46.65157" lon="6.11251">
        <ele>1177.807</ele>
        <time>2014-06-13T10:06:28Z</time>
      </trkpt>
      <trkpt lat="46.6496" lon="6.11335">
        <ele>1194.628</ele>
        <time>2014-06-13T10:09:50Z</time>
      </trkpt>
      <trkpt lat="46.64942" lon="6.11365">
        <ele>1195.192</ele>
        <time>2014-06-13T10:10:14Z</time>
      </trkpt>
      <trkpt lat="46.64889" lon="6.11396">
        <ele>1193.157</ele>
        <time>2014-06-13T10:10:53Z</time>
      </trkpt>
      <trkpt lat="46.64861" lon="6.11346">
        <ele>1196.054</ele>
        <time>2014-06-13T10:11:28Z</time>
      </trkpt>
      <trkpt lat="46.64813" lon="6.11321">
        <ele>1195.149</ele>
        <time>2014-06-13T10:12:13Z</time>
      </trkpt>
      <trkpt lat="46.64564" lon="6.1142">
        <ele>1193.138</ele>
        <time>2014-06-13T10:15:36Z</time>
      </trkpt>
      <trkpt lat="46.64432" lon="6.11614">
        <ele>1191.27</ele>
        <time>2014-06-13T10:18:01Z</time>
      </trkpt>
      <trkpt lat="46.64394" lon="6.11637">
        <ele>1192.774</ele>
        <time>2014-06-13T10:18:48Z</time>
      </trkpt>
      <trkpt lat="46.6425" lon="6.11785">
        <ele>1205.256</ele>
        <time>2014-06-13T10:21:30Z</time>
      </trkpt>
      <trkpt lat="46.64107" lon="6.11868">
        <ele>1212.821</ele>
        <time>2014-06-13T10:23:45Z</time>
      </trkpt>
      <trkpt lat="46.64" lon="6.11834">
        <ele>1211.407</ele>
        <time>2014-06-13T10:25:14Z</time>
      </trkpt>
      <trkpt lat="46.63994" lon="6.11875">
        <ele>1211.424</ele>
        <time>2014-06-13T10:25:43Z</time>
      </trkpt>
      <trkpt lat="46.63957" lon="6.11878">
        <ele>1211.458</ele>
        <time>2014-06-13T10:26:17Z</time>
      </trkpt>
      <trkpt lat="46.63892" lon="6.11829">
        <ele>1210.433</ele>
        <time>2014-06-13T10:27:12Z</time>
      </trkpt>
      <trkpt lat="46.63831" lon="6.11733">
        <ele>1209.59</ele>
        <time>2014-06-13T10:28:24Z</time>
      </trkpt>
      <trkpt lat="46.63785" lon="6.11596">
        <ele>1208.055</ele>
        <time>2014-06-13T10:29:46Z</time>
      </trkpt>
      <trkpt lat="46.63752" lon="6.11395">
        <ele>1208.074</ele>
        <time>2014-06-13T10:31:33Z</time>
      </trkpt>
      <trkpt lat="46.63712" lon="6.11286">
        <ele>1208.026</ele>
        <time>2014-06-13T10:32:37Z</time>
      </trkpt>
      <trkpt lat="46.63675" lon="6.11225">
        <ele>1206.658</ele>
        <time>2014-06-13T10:33:17Z</time>
      </trkpt>
      <trkpt lat="46.63597" lon="6.11214">
        <ele>1207.652</ele>
        <time>2014-06-13T10:34:15Z</time>
      </trkpt>
      <trkpt lat="46.63559" lon="6.11155">
        <ele>1207.617</ele>
        <time>2014-06-13T10:34:52Z</time>
      </trkpt>
      <trkpt lat="46.63583" lon="6.10997">
        <ele>1207.607</ele>
        <time>2014-06-13T10:36:08Z</time>
      </trkpt>
      <trkpt lat="46.63554" lon="6.1095">
        <ele>1206.692</ele>
        <time>2014-06-13T10:36:44Z</time>
      </trkpt>
      <trkpt lat="46.63465" lon="6.10926">
        <ele>1205.696</ele>
        <time>2014-06-13T10:37:51Z</time>
      </trkpt>
      <trkpt lat="46.63423" lon="6.10937">
        <ele>1205.681</ele>
        <time>2014-06-13T10:38:31Z</time>
      </trkpt>
      <trkpt lat="46.6334" lon="6.11159">
        <ele>1206.648</ele>
        <time>2014-06-13T10:41:08Z</time>
      </trkpt>
      <trkpt lat="46.63228" lon="6.11287">
        <ele>1210.043</ele>
        <time>2014-06-13T10:42:47Z</time>
      </trkpt>
      <trkpt lat="46.63151" lon="6.11329">
        <ele>1215.732</ele>
        <time>2014-06-13T10:43:58Z</time>
      </trkpt>
      <trkpt lat="46.63112" lon="6.11295">
        <ele>1215.744</ele>
        <time>2014-06-13T10:44:33Z</time>
      </trkpt>
      <trkpt lat="46.63054" lon="6.11081">
        <ele>1202.874</ele>
        <time>2014-06-13T10:46:37Z</time>
      </trkpt>
      <trkpt lat="46.63028" lon="6.11037">
        <ele>1201.356</ele>
        <time>2014-06-13T10:47:09Z</time>
      </trkpt>
      <trkpt lat="46.62927" lon="6.10966">
        <ele>1199.421</ele>
        <time>2014-06-13T10:48:51Z</time>
      </trkpt>
      <trkpt lat="46.62892" lon="6.1092">
        <ele>1197.907</ele>
        <time>2014-06-13T10:49:33Z</time>
      </trkpt>
      <trkpt lat="46.62881" lon="6.10856">
        <ele>1194.164</ele>
        <time>2014-06-13T10:50:03Z</time>
      </trkpt>
      <trkpt lat="46.62835" lon="6.10885">
        <ele>1187.958</ele>
        <time>2014-06-13T10:50:51Z</time>
      </trkpt>
      <trkpt lat="46.62803" lon="6.10822">
        <ele>1184.023</ele>
        <time>2014-06-13T10:51:33Z</time>
      </trkpt>
      <trkpt lat="46.62738" lon="6.10921">
        <ele>1173.97</ele>
        <time>2014-06-13T10:53:04Z</time>
      </trkpt>
      <trkpt lat="46.62674" lon="6.10957">
        <ele>1169.645</ele>
        <time>2014-06-13T10:53:43Z</time>
      </trkpt>
      <trkpt lat="46.62648" lon="6.10951">
        <ele>1169.194</ele>
        <time>2014-06-13T10:54:02Z</time>
      </trkpt>
      <trkpt lat="46.62592" lon="6.109">
        <ele>1170.586</ele>
        <time>2014-06-13T10:54:56Z</time>
      </trkpt>
      <trkpt lat="46.62481" lon="6.10927">
        <ele>1164.378</ele>
        <time>2014-06-13T10:56:29Z</time>
      </trkpt>
      <trkpt lat="46.62429" lon="6.10916">
        <ele>1158.133</ele>
        <time>2014-06-13T10:58:02Z</time>
      </trkpt>
      <trkpt lat="46.62356" lon="6.10776">
        <ele>1150.826</ele>
        <time>2014-06-13T10:59:54Z</time>
      </trkpt>
      <trkpt lat="46.62258" lon="6.10477">
        <ele>1138.807</ele>
        <time>2014-06-13T11:02:56Z</time>
      </trkpt>
      <trkpt lat="46.6222" lon="6.10441">
        <ele>1137.964</ele>
        <time>2014-06-13T11:03:42Z</time>
      </trkpt>
      <trkpt lat="46.62192" lon="6.1045">
        <ele>1138.828</ele>
        <time>2014-06-13T11:04:09Z</time>
      </trkpt>
      <trkpt lat="46.62031" lon="6.1058">
        <ele>1122.583</ele>
        <time>2014-06-13T11:07:06Z</time>
      </trkpt>
      <trkpt lat="46.61941" lon="6.10547">
        <ele>1113.88</ele>
        <time>2014-06-13T11:08:29Z</time>
      </trkpt>
      <trkpt lat="46.61882" lon="6.10495">
        <ele>1106.185</ele>
        <time>2014-06-13T11:09:33Z</time>
      </trkpt>
      <trkpt lat="46.61806" lon="6.10518">
        <ele>1106.654</ele>
        <time>2014-06-13T11:10:58Z</time>
      </trkpt>
      <trkpt lat="46.61744" lon="6.10502">
        <ele>1102.386</ele>
        <time>2014-06-13T11:11:51Z</time>
      </trkpt>
      <trkpt lat="46.61707" lon="6.10523">
        <ele>1099.483</ele>
        <time>2014-06-13T11:12:21Z</time>
      </trkpt>
      <trkpt lat="46.6168" lon="6.10521">
        <ele>1098.425</ele>
        <time>2014-06-13T11:12:47Z</time>
      </trkpt>
      <trkpt lat="46.61639" lon="6.10559">
        <ele>1098.017</ele>
        <time>2014-06-13T11:13:28Z</time>
      </trkpt>
      <trkpt lat="46.61568" lon="6.10568">
        <ele>1095.607</ele>
        <time>2014-06-13T11:14:23Z</time>
      </trkpt>
      <trkpt lat="46.61446" lon="6.10645">
        <ele>1092.795</ele>
        <time>2014-06-13T11:16:14Z</time>
      </trkpt>
      <trkpt lat="46.61415" lon="6.1064">
        <ele>1093.619</ele>
        <time>2014-06-13T11:16:44Z</time>
      </trkpt>
      <trkpt lat="46.61372" lon="6.10582">
        <ele>1090.344</ele>
        <time>2014-06-13T11:17:36Z</time>
      </trkpt>
      <trkpt lat="46.61232" lon="6.10539">
        <ele>1093.251</ele>
        <time>2014-06-13T11:19:44Z</time>
      </trkpt>
      <trkpt lat="46.61197" lon="6.10414">
        <ele>1092.746</ele>
        <time>2014-06-13T11:20:55Z</time>
      </trkpt>
      <trkpt lat="46.61159" lon="6.10386">
        <ele>1091.255</ele>
        <time>2014-06-13T11:21:35Z</time>
      </trkpt>
      <trkpt lat="46.61099" lon="6.10403">
        <ele>1090.367</ele>
        <time>2014-06-13T11:22:36Z</time>
      </trkpt>
      <trkpt lat="46.60965" lon="6.10476">
        <ele>1086.929</ele>
        <time>2014-06-13T11:24:31Z</time>
      </trkpt>
      <trkpt lat="46.608" lon="6.1061">
        <ele>1085</ele>
        <time>2014-06-13T11:27:18Z</time>
      </trkpt>
      <trkpt lat="46.60692" lon="6.10676">
        <ele>1084.02</ele>
        <time>2014-06-13T11:29:02Z</time>
      </trkpt>
      <trkpt lat="46.60271" lon="6.10672">
        <ele>1079.207</ele>
        <time>2014-06-13T11:34:51Z</time>
      </trkpt>
      <trkpt lat="46.60127" lon="6.10712">
        <ele>1077.879</ele>
        <time>2014-06-13T11:36:58Z</time>
      </trkpt>
      <trkpt lat="46.60075" lon="6.10711">
        <ele>1077.323</ele>
        <time>2014-06-13T11:37:54Z</time>
      </trkpt>
      <trkpt lat="46.6006" lon="6.10864">
        <ele>1078.388</ele>
        <time>2014-06-13T11:40:08Z</time>
      </trkpt>
      <trkpt lat="46.59942" lon="6.1133">
        <ele>1094.145</ele>
        <time>2014-06-13T11:45:37Z</time>
      </trkpt>
      <trkpt lat="46.59882" lon="6.11402">
        <ele>1089.88</ele>
        <time>2014-06-13T11:46:59Z</time>
      </trkpt>
      <trkpt lat="46.59802" lon="6.11411">
        <ele>1093.279</ele>
        <time>2014-06-13T11:48:54Z</time>
      </trkpt>
      <trkpt lat="46.59826" lon="6.11404">
        <ele>1093.621</ele>
        <time>2014-06-13T11:49:49Z</time>
      </trkpt>
      <trkpt lat="46.59822" lon="6.11391">
        <ele>1094.166</ele>
        <time>2014-06-13T11:50:09Z</time>
      </trkpt>
      <trkpt lat="46.59844" lon="6.11363">
        <ele>1093.629</ele>
        <time>2014-06-13T11:50:43Z</time>
      </trkpt>
      <trkpt lat="46.59794" lon="6.11417">
        <ele>1093.621</ele>
        <time>2014-06-13T11:51:10Z</time>
      </trkpt>
      <trkpt lat="46.59812" lon="6.11379">
        <ele>1097.007</ele>
        <time>2014-06-13T11:53:43Z</time>
      </trkpt>
    </trkseg>
  </trk>
</gpx>